createdAt,value
2022-08-23T00:00:13.221Z,0.4
2022-08-23T00:05:09.927Z,2.2
2022-08-23T00:10:00.282Z,0.6
2022-08-23T00:15:00.260Z,0.1
2022-08-23T00:20:00.278Z,0.1
2022-08-23T00:25:00.256Z,0.4
2022-08-23T00:30:00.281Z,0.1
2022-08-23T00:35:00.271Z,0.2
2022-08-23T00:40:00.651Z,0.0
2022-08-23T00:45:00.278Z,0.0
2022-08-23T00:50:00.268Z,0.1
2022-08-23T00:55:00.257Z,0.3
2022-08-23T01:00:00.303Z,1.7
2022-08-23T01:05:00.230Z,2.2
2022-08-23T01:10:02.580Z,3.3
2022-08-23T01:15:00.288Z,2.9
2022-08-23T01:20:01.601Z,3.3
2022-08-23T01:25:09.218Z,0.7
2022-08-23T01:30:00.311Z,0.5
2022-08-23T01:35:00.234Z,0.3
2022-08-23T01:40:00.523Z,0.9
2022-08-23T01:45:00.229Z,1.6
2022-08-23T01:50:00.260Z,0.8
2022-08-23T01:55:00.264Z,0.1
2022-08-23T02:00:00.381Z,0.5
2022-08-23T02:05:00.247Z,0.1
2022-08-23T02:10:02.870Z,0.1
2022-08-23T02:15:00.334Z,0.0
2022-08-23T02:20:00.251Z,0.0
2022-08-23T02:25:00.264Z,0.0
2022-08-23T02:30:02.275Z,0.4
2022-08-23T02:35:06.072Z,0.0
2022-08-23T02:40:00.534Z,1.7
2022-08-23T02:45:00.364Z,2.3
2022-08-23T02:50:00.301Z,3.5
2022-08-23T02:55:00.323Z,2.1
2022-08-23T03:00:00.362Z,1.3
2022-08-23T03:05:00.316Z,0.2
2022-08-23T03:10:00.334Z,2.1
2022-08-23T03:15:00.326Z,2.8
2022-08-23T03:20:00.324Z,2.1
2022-08-23T03:25:00.316Z,2.5
2022-08-23T03:30:01.023Z,1.2
2022-08-23T03:35:00.246Z,0.1
2022-08-23T03:40:00.554Z,0.0
2022-08-23T03:45:02.869Z,0.0
2022-08-23T03:50:00.242Z,0.0
2022-08-23T03:55:00.294Z,0.0
2022-08-23T04:00:00.247Z,0.0
2022-08-23T04:05:00.247Z,0.0
2022-08-23T04:10:00.258Z,0.0
2022-08-23T04:15:02.818Z,0.0
2022-08-23T04:20:00.244Z,0.7
2022-08-23T04:25:00.256Z,0.2
2022-08-23T04:30:00.305Z,0.1
2022-08-23T04:35:00.237Z,0.5
2022-08-23T04:40:00.555Z,1.5
2022-08-23T04:45:00.304Z,0.7
2022-08-23T04:50:00.282Z,1.5
2022-08-23T04:55:00.251Z,1.9
2022-08-23T05:00:00.376Z,1.2
2022-08-23T05:05:00.245Z,0.4
2022-08-23T05:10:00.297Z,0.8
2022-08-23T05:15:00.277Z,0.2
2022-08-23T05:20:00.278Z,1.4
2022-08-23T05:25:00.263Z,2.5
2022-08-23T05:30:00.297Z,1.8
2022-08-23T05:35:00.276Z,1.0
2022-08-23T05:40:00.356Z,2.4
2022-08-23T05:45:00.296Z,1.4
2022-08-23T05:50:00.257Z,3.0
2022-08-23T05:55:00.343Z,3.8
2022-08-23T06:00:00.272Z,2.1
2022-08-23T06:05:00.267Z,4.6
2022-08-23T06:10:00.257Z,5.2
2022-08-23T06:15:00.268Z,6.2
2022-08-23T06:20:00.475Z,3.7
2022-08-23T06:25:00.286Z,4.0
2022-08-23T06:30:00.337Z,5.2
2022-08-23T06:35:12.375Z,6.1
2022-08-23T06:40:00.482Z,4.0
2022-08-23T06:45:00.368Z,6.2
2022-08-23T06:50:00.601Z,5.3
2022-08-23T06:55:00.279Z,3.3
2022-08-23T07:00:00.360Z,4.3
2022-08-23T07:05:00.255Z,3.8
2022-08-23T07:10:00.305Z,5.6
2022-08-23T07:15:00.294Z,3.6
2022-08-23T07:20:00.374Z,7.9
2022-08-23T07:25:00.254Z,4.8
2022-08-23T07:30:00.359Z,3.7
2022-08-23T07:35:00.313Z,5.6
2022-08-23T07:40:00.449Z,8.0
2022-08-23T07:45:00.304Z,4.4
2022-08-23T07:50:00.300Z,5.6
2022-08-23T07:55:00.301Z,7.6
2022-08-23T08:00:00.335Z,5.5
2022-08-23T08:05:00.252Z,6.0
2022-08-23T08:10:00.310Z,5.5
2022-08-23T08:15:00.324Z,7.1
2022-08-23T08:20:00.304Z,4.1
2022-08-23T08:25:00.287Z,4.3
2022-08-23T08:30:00.312Z,6.0
2022-08-23T08:35:00.360Z,6.7
2022-08-23T08:40:00.482Z,7.7
2022-08-23T08:45:00.438Z,6.3
2022-08-23T08:50:00.299Z,6.0
2022-08-23T08:55:00.378Z,9.1
2022-08-23T09:00:00.353Z,5.6
2022-08-23T09:05:00.270Z,8.5
2022-08-23T09:10:00.349Z,5.7
2022-08-23T09:15:00.314Z,10.4
2022-08-23T09:20:00.417Z,7.8
2022-08-23T09:25:00.253Z,4.4
2022-08-23T09:30:00.323Z,8.3
2022-08-23T09:35:00.351Z,9.7
2022-08-23T09:40:00.501Z,9.9
2022-08-23T09:45:00.326Z,5.4
2022-08-23T09:50:00.267Z,8.1
2022-08-23T09:55:00.432Z,8.6
2022-08-23T10:00:00.343Z,10.1
2022-08-23T10:05:00.485Z,7.7
2022-08-23T10:10:02.332Z,11.1
2022-08-23T10:15:00.315Z,6.7
2022-08-23T10:20:00.329Z,5.6
2022-08-23T10:25:00.318Z,5.9
2022-08-23T10:30:00.302Z,5.7
2022-08-23T10:35:00.328Z,9.5
2022-08-23T10:40:04.455Z,9.4
2022-08-23T10:45:00.402Z,5.2
2022-08-23T10:50:00.324Z,5.6
2022-08-23T10:55:00.473Z,6.7
2022-08-23T11:00:00.324Z,4.8
2022-08-23T11:05:00.327Z,11.8
2022-08-23T11:10:02.189Z,7.7
2022-08-23T11:15:00.314Z,6.4
2022-08-23T11:20:00.316Z,7.5
2022-08-23T11:25:00.372Z,7.8
2022-08-23T11:30:00.275Z,8.8
2022-08-23T11:35:00.288Z,4.6
2022-08-23T11:40:00.701Z,6.4
2022-08-23T11:45:00.351Z,7.3
2022-08-23T11:50:00.461Z,4.5
2022-08-23T11:55:00.244Z,6.6
2022-08-23T12:00:00.313Z,5.6
2022-08-23T12:05:00.261Z,5.9
2022-08-23T12:10:00.374Z,7.7
2022-08-23T12:15:00.319Z,5.6
2022-08-23T12:20:00.328Z,4.7
2022-08-23T12:25:00.246Z,7.7
2022-08-23T12:30:00.298Z,9.4
2022-08-23T12:35:00.280Z,4.8
2022-08-23T12:40:00.509Z,9.4
2022-08-23T12:45:00.302Z,9.9
2022-08-23T12:50:00.276Z,9.7
2022-08-23T12:55:00.292Z,10.5
2022-08-23T13:00:16.782Z,6.7
2022-08-23T13:05:00.265Z,9.4
2022-08-23T13:10:00.358Z,10.6
2022-08-23T13:15:00.426Z,6.9
2022-08-23T13:20:00.316Z,6.9
2022-08-23T13:25:28.979Z,6.1
2022-08-23T13:30:00.432Z,3.3
2022-08-23T13:35:00.266Z,1.8
2022-08-23T13:40:00.529Z,7.0
2022-08-23T13:45:00.320Z,4.9
2022-08-23T13:50:00.319Z,3.8
2022-08-23T13:55:00.268Z,9.3
2022-08-23T14:00:00.329Z,10.2
2022-08-23T14:05:00.408Z,6.8
2022-08-23T14:10:00.346Z,6.1
2022-08-23T14:15:00.288Z,4.9
2022-08-23T14:25:01.234Z,10.7
2022-08-23T14:30:00.554Z,9.3
2022-08-23T14:35:00.250Z,8.7
2022-08-23T14:40:00.602Z,10.9
2022-08-23T14:45:00.289Z,7.1
2022-08-23T14:50:00.484Z,10.3
2022-08-23T14:55:00.287Z,5.7
2022-08-23T15:00:00.532Z,5.9
2022-08-23T15:05:00.287Z,6.5
2022-08-23T15:10:00.284Z,8.5
2022-08-23T15:15:00.305Z,9.3
2022-08-23T15:20:00.273Z,13.0
2022-08-23T15:25:00.301Z,7.2
2022-08-23T15:30:00.375Z,6.6
2022-08-23T15:35:00.696Z,4.9
2022-08-23T15:40:00.620Z,5.6
2022-08-23T15:45:00.378Z,3.5
2022-08-23T15:50:00.245Z,5.9
2022-08-23T15:55:00.261Z,5.6
2022-08-23T16:00:00.318Z,6.9
2022-08-23T16:05:00.253Z,5.8
2022-08-23T16:10:00.237Z,6.7
2022-08-23T16:15:00.303Z,4.9
2022-08-23T16:20:00.260Z,3.9
2022-08-23T16:25:00.290Z,6.0
2022-08-23T16:35:00.273Z,6.0
2022-08-23T16:40:00.535Z,4.6
2022-08-23T16:45:00.243Z,3.7
2022-08-23T16:50:00.294Z,4.3
2022-08-23T16:55:00.253Z,2.6
2022-08-23T17:00:00.310Z,4.1
2022-08-23T17:05:00.274Z,3.7
2022-08-23T17:10:00.289Z,3.2
2022-08-23T17:15:00.270Z,4.5
2022-08-23T17:20:00.294Z,3.0
2022-08-23T17:25:00.230Z,3.3
2022-08-23T17:30:00.274Z,6.7
2022-08-23T17:35:00.217Z,6.2
2022-08-23T17:40:00.549Z,4.7
2022-08-23T17:45:00.275Z,2.2
2022-08-23T17:50:00.263Z,4.5
2022-08-23T17:55:00.465Z,2.7
2022-08-23T18:00:00.330Z,3.0
2022-08-23T18:05:00.388Z,1.9
2022-08-23T18:10:00.519Z,1.1
2022-08-23T18:15:00.259Z,1.7
2022-08-23T18:20:00.279Z,0.4
2022-08-23T18:25:00.277Z,0.0
2022-08-23T18:30:00.299Z,0.0
2022-08-23T18:35:00.278Z,0.0
2022-08-23T18:40:00.378Z,0.0
2022-08-23T18:45:00.271Z,0.0
2022-08-23T18:50:00.259Z,0.0
2022-08-23T18:55:00.278Z,0.0
2022-08-23T19:00:00.263Z,0.0
2022-08-23T19:05:00.275Z,0.0
2022-08-23T19:10:00.232Z,0.1
2022-08-23T19:15:00.259Z,0.0
2022-08-23T19:20:00.254Z,0.0
2022-08-23T19:25:00.264Z,0.0
2022-08-23T19:30:00.287Z,0.0
2022-08-23T19:35:00.231Z,0.0
2022-08-23T19:40:00.403Z,0.0
2022-08-23T19:45:00.271Z,0.0
2022-08-23T19:50:00.242Z,0.0
2022-08-23T19:55:07.295Z,0.8
2022-08-23T20:00:00.247Z,1.1
2022-08-23T20:05:00.293Z,1.3
2022-08-23T20:10:00.369Z,1.1
2022-08-23T20:15:00.320Z,1.0
2022-08-23T20:20:00.280Z,0.0
2022-08-23T20:25:00.284Z,1.1
2022-08-23T20:30:00.343Z,0.1
2022-08-23T20:35:00.261Z,0.0
2022-08-23T20:40:00.549Z,0.0
2022-08-23T20:45:00.287Z,0.1
2022-08-23T20:50:00.262Z,0.0
2022-08-23T20:55:00.264Z,0.1
2022-08-23T21:00:00.348Z,0.2
2022-08-23T21:05:00.226Z,0.0
2022-08-23T21:10:00.254Z,0.0
2022-08-23T21:15:00.264Z,0.5
2022-08-23T21:20:00.267Z,1.4
2022-08-23T21:25:00.283Z,2.2
2022-08-23T21:30:00.281Z,1.4
2022-08-23T21:35:00.283Z,1.6
2022-08-23T21:40:00.393Z,2.1
2022-08-23T21:45:00.279Z,0.9
2022-08-23T21:50:00.263Z,0.0
2022-08-23T21:55:00.257Z,0.1
2022-08-23T22:00:00.333Z,1.9
2022-08-23T22:05:00.230Z,0.4
2022-08-23T22:10:00.246Z,0.6
2022-08-23T22:15:00.310Z,0.0
2022-08-23T22:20:00.278Z,0.0
2022-08-23T22:25:00.285Z,0.0
2022-08-23T22:30:00.280Z,0.0
2022-08-23T22:35:00.282Z,0.0
2022-08-23T22:40:00.576Z,0.0
2022-08-23T22:45:00.265Z,0.0
2022-08-23T22:50:00.250Z,0.0
2022-08-23T22:55:00.269Z,0.0
2022-08-23T23:00:00.487Z,0.0
2022-08-23T23:05:00.283Z,0.0
2022-08-23T23:10:00.230Z,0.0
2022-08-23T23:15:00.246Z,0.0
2022-08-23T23:20:00.210Z,0.0
2022-08-23T23:25:00.232Z,0.0
2022-08-23T23:30:00.308Z,0.0
2022-08-23T23:35:00.952Z,0.0
2022-08-23T23:40:00.552Z,0.0
2022-08-23T23:45:00.300Z,0.0
2022-08-23T23:50:00.278Z,0.0
2022-08-23T23:55:00.267Z,0.2
